Aviation Digital Data Service (ADDS)

Output produced by METARs form (0349 UTC 18 October 2017)
found at http://www.aviationweather.gov/adds/metars/
 
KGTR 180256Z AUTO 03003KT 10SM CLR 12/09 A3025 RMK AO2 SLP246 T01170089 53013
KGTR 180156Z AUTO 07004KT 10SM CLR 15/09 A3023 RMK AO2 SLP238 T01500094
KGTR 180056Z AUTO 08004KT 10SM CLR 17/09 A3022 RMK AO2 SLP236 T01670089
KGTR 172356Z 06004KT 10SM CLR 18/09 A3021 RMK AO2 SLP233 T01780089 10233 20178 55001
KGTR 172256Z 04005KT 10SM CLR 21/09 A3021 RMK AO2 SLP231 T02060089
KGTR 172156Z 03004KT 10SM CLR 22/08 A3021 RMK AO2 SLP229 T02220083
KGTR 172056Z VRB05KT 10SM CLR 23/09 A3022 RMK AO2 SLP234 T02330089 56022
KGTR 171956Z 06008KT 10SM CLR 23/09 A3023 RMK AO2 SLP238 T02330089
KGTR 171856Z 11005G15KT 10SM CLR 22/09 A3025 RMK AO2 SLP246 T02220089
KGTR 171756Z 03004KT 10SM CLR 22/08 A3028 RMK AO2 SLP256 T02170083 10217 20061 58017
KGTR 171656Z VRB05KT 10SM CLR 20/08 A3031 RMK AO2 SLP263 T02000083
KGTR 171556Z 11007KT 10SM CLR 18/07 A3033 RMK AO2 SLP271 T01780072
KGTR 171456Z 11007KT 10SM CLR 15/07 A3033 RMK AO2 SLP273 T01500072 51009
KGTR 171356Z 07005KT 10SM CLR 13/08 A3032 RMK AO2 SLP270 T01280083
KGTR 171256Z 36003KT 10SM CLR 08/07 A3031 RMK AO2 SLP268 T00830072
KGTR 171156Z 34005KT 10SM CLR 07/06 A3030 RMK AO2 SLP264 T00670061 10089 20061 53016
KGTR 171114Z 36005KT 5SM BR CLR 06/06 A3028 RMK AO2
KGTR 171104Z 02005KT 1 3/4SM BR CLR 07/06 A3028 RMK AO2 VIS 1/2V5
KGTR 171056Z 36005KT 3SM BR CLR 07/06 A3028 RMK AO2 SLP256 T00670061
KGTR 170956Z AUTO 35004KT 10SM CLR 07/06 A3027 RMK AO2 SLP251 T00720061
KGTR 170856Z AUTO 35004KT 10SM CLR 07/06 A3026 RMK AO2 SLP246 T00720061 56002
KGTR 170756Z AUTO 34005KT 10SM CLR 08/07 A3026 RMK AO2 SLP247 T00780067
KGTR 170656Z AUTO 34004KT 10SM CLR 09/07 A3026 RMK AO2 SLP248 T00890067
KGTR 170556Z AUTO 34004KT 10SM CLR 09/07 A3026 RMK AO2 SLP249 T00890067 10144 20089 402110089 57003
KGTR 170456Z AUTO 34003KT 10SM CLR 10/07 A3027 RMK AO2 SLP250 T01000072
KGTR 170356Z AUTO 36006KT 10SM CLR 10/07 A3027 RMK AO2 SLP251 T01000072
KGTR 170256Z AUTO 36006KT 10SM CLR 11/07 A3027 RMK AO2 SLP253 T01110072 51016
KGTR 170156Z AUTO 35004KT 10SM CLR 12/07 A3026 RMK AO2 SLP249 T01220072
KGTR 170056Z 35006KT 10SM CLR 13/07 A3025 RMK AO2 SLP245 T01280072
KGTR 162356Z 35005KT 10SM CLR 14/08 A3022 RMK AO2 SLP237 T01440078 10211 20144 53010
KGTR 162256Z 35010KT 10SM CLR 18/07 A3021 RMK AO2 SLP230 T01780072
KGTR 162156Z 35012G20KT 10SM CLR 19/08 A3020 RMK AO2 SLP227 T01940078
KGTR 162056Z 01014KT 10SM CLR 21/08 A3019 RMK AO2 SLP226 T02060078 56021
KGTR 161956Z 35014KT 10SM CLR 21/08 A3020 RMK AO2 SLP226 T02110078
KGTR 161856Z 35012KT 10SM CLR 20/08 A3022 RMK AO2 SLP235 T02000083
KGTR 161756Z 01016G20KT 10SM CLR 19/08 A3026 RMK AO2 SLP246 T01940078 10194 20100 58012
KGTR 161656Z 01011KT 10SM CLR 18/09 A3028 RMK AO2 SLP255 T01830089
KGTR 161556Z 01014G18KT 10SM CLR 16/08 A3029 RMK AO2 SLP259 T01610083
KGTR 161456Z 36015KT 10SM CLR 14/08 A3029 RMK AO2 SLP258 T01440083 52010
KGTR 161356Z 36015G20KT 10SM FEW018 12/08 A3028 RMK AO2 SLP255 T01220083
KGTR 161256Z 36012KT 10SM CLR 11/08 A3027 RMK AO2 SLP251 T01060083
KGTR 161156Z 36008KT 10SM CLR 10/08 A3026 RMK AO2 SLP248 70034 T01000083 10139 20100 53021
KGTR 161056Z 35009KT 10SM CLR 11/08 A3023 RMK AO2 SLP237 T01060083
KGTR 160956Z AUTO 36011KT 10SM CLR 11/09 A3021 RMK AO2 SLP232 T01110089
KGTR 160856Z AUTO 36012KT 10SM CLR 12/09 A3020 RMK AO2 SLP225 T01170094 50002
KGTR 160756Z AUTO 36012KT 10SM CLR 13/11 A3021 RMK AO2 SLP228 T01280106
KGTR 160656Z AUTO 36013KT 10SM CLR 13/11 A3020 RMK AO2 SLP226 T01330111
KGTR 160556Z AUTO 36013KT 10SM FEW016 BKN075 14/12 A3019 RMK AO2 SLP224 60034 T01390122 10239 20139 403220139 50003
KGTR 160520Z AUTO 35012G17KT 10SM SCT016 14/13 A3020 RMK AO2
KGTR 160456Z AUTO 35012G18KT 10SM BKN016 OVC100 14/13 A3020 RMK AO2 SLP226 P0005 T01440128
KGTR 160434Z AUTO 35012G19KT 10SM OVC016 15/13 A3019 RMK AO2 P0005
KGTR 160356Z AUTO 34013G17KT 8SM OVC014 15/14 A3020 RMK AO2 SLP225 P0016 T01500139
KGTR 160256Z AUTO 33012G20KT 10SM BKN012 OVC045 16/14 A3018 RMK AO2 PK WND 33027/0230 TSB10E25 PRESRR SLP221 P0011 60013 T01560139 51028
KGTR 160253Z AUTO 34012G20KT 10SM FEW008 BKN012 OVC045 16/14 A3018 RMK AO2 PK WND 33027/0230 TSB10E25 P0011
KGTR 160238Z AUTO 34018G27KT 10SM SCT008 SCT020 OVC045 16/14 A3016 RMK AO2 PK WND 33027/0230 TSB10E25 P0011
KGTR 160231Z AUTO 34019G27KT 10SM SCT008 BKN012 OVC045 17/15 A3016 RMK AO2 PK WND 33027/0230 TSB10E25 P0011
KGTR 160216Z AUTO 34013G21KT 7SM VCTS BKN008 BKN012 OVC043 18/17 A3015 RMK AO2 TSB10 CIG 007V012 P0010
KGTR 160206Z AUTO 34016G19KT 6SM BR BKN008 OVC014 19/18 A3015 RMK AO2 CIG 007V012 PRESRR P0006
KGTR 160156Z AUTO 34012KT 10SM BKN010 BKN015 OVC033 19/18 A3014 RMK AO2 CIG 007V013 SLP206 P0002 T01940183
KGTR 160103Z AUTO 34012G19KT 10SM BKN012 OVC017 22/20 A3010 RMK AO2 LTG DSNT SE AND S
KGTR 160056Z AUTO 32012G17KT 10SM SCT012 OVC019 22/20 A3010 RMK AO2 LTG DSNT E-S SLP192 T02220200
KGTR 160045Z 33013G19KT 10SM BKN019 OVC100 23/20 A3009 RMK AO2 LTG DSNT SE
KGTR 152356Z 34008KT 10SM SCT050 SCT080 OVC110 24/19 A3007 RMK AO2 SLP183 T02390194 10322 20239 53022
KGTR 152256Z 34015KT 10SM SCT050 BKN120 26/20 A3002 RMK AO2 SLP167 T02560200
KGTR 152156Z VRB04KT 10SM FEW050 31/19 A3000 RMK AO2 SLP157 T03060194
KGTR 152056Z 00000KT 10SM FEW050 32/19 A3001 RMK AO2 SLP160 T03170194 56027
KGTR 151956Z 27005KT 10SM CLR 31/19 A3002 RMK AO2 SLP163 T03110189
KGTR 151856Z 23007KT 10SM BKN045 31/20 A3004 RMK AO2 SLP172 T03110200
KGTR 151756Z 27008KT 10SM BKN032 29/21 A3009 RMK AO2 SLP188 T02940211 10294 20194 58019
KGTR 151709Z 22006KT 10SM SCT026 29/22 A3012 RMK AO2
KGTR 151656Z VRB05KT 10SM BKN026 BKN031 OVC060 28/22 A3012 RMK AO2 SLP200 T02780217
KGTR 151609Z 19007KT 10SM BKN026 BKN033 27/22 A3014 RMK AO2
KGTR 151556Z 19010G14KT 10SM SCT026 SCT033 28/22 A3014 RMK AO2 SLP205 T02780217
KGTR 151456Z 22005KT 10SM FEW050 26/21 A3014 RMK AO2 SLP208 T02560211 53011
KGTR 151356Z 15007KT 10SM CLR 23/21 A3013 RMK AO2 SLP204 T02280211
KGTR 151256Z 16005KT 7SM CLR 21/20 A3012 RMK AO2 SLP199 T02060200
KGTR 151156Z 13003KT 6SM BR FEW040 SCT050 19/19 A3011 RMK AO2 SLP196 T01940194 10206 20189 51013
KGTR 151056Z 16003KT 6SM BR CLR 19/19 A3010 RMK AO2 SLP193 T01940194
KGTR 150956Z AUTO 14005KT 8SM FEW048 20/19 A3008 RMK AO2 SLP187 T02000194
KGTR 150856Z AUTO 16006KT 9SM SCT060 20/19 A3007 RMK AO2 SLP182 T02000194 56009
KGTR 150756Z AUTO 16007KT 9SM FEW060 20/19 A3008 RMK AO2 SLP183 T02000194
KGTR 150656Z AUTO 15007KT 10SM CLR 21/19 A3009 RMK AO2 SLP188 T02060194
KGTR 150556Z AUTO 16005KT 10SM CLR 20/19 A3010 RMK AO2 SLP192 T02000189 10250 20200 403110167 58006
KGTR 150456Z AUTO 14006KT 10SM CLR 21/19 A3011 RMK AO2 SLP196 T02110194
KGTR 150356Z AUTO 14009KT 10SM CLR 22/19 A3011 RMK AO2 SLP196 T02170194